Time;durP1;ratioP1;P1;durP2;ratioP2;P2;SDS_P1;SDS_P2;PMS_P1;PMS_P2;Temp;Humidity;BMP_temperature;BMP_pressure;BME280_temperature;BME280_humidity;BME280_pressure;Samples;Min_cycle;Max_cycle;Signal;HPM_P1;HPM_P2
2020/12/26 00:00:45;;;;;;;46.88;34.42;;;4.10;99.90;;;;;;5010448;28;20227;-29
2020/12/26 00:03:15;;;;;;;13.35;10.98;;;4.00;99.90;;;;;;5010615;28;20200;-28
2020/12/26 00:05:47;;;;;;;19.17;16.65;;;4.10;99.90;;;;;;5010752;28;20211;-28
2020/12/26 00:08:17;;;;;;;12.48;11.20;;;4.10;99.90;;;;;;5004888;28;20196;-29
2020/12/26 00:10:48;;;;;;;9.90;9.00;;;4.10;99.90;;;;;;5010057;28;20203;-28
2020/12/26 00:13:18;;;;;;;9.75;8.85;;;4.10;99.90;;;;;;5011184;28;20225;-29
2020/12/26 00:15:48;;;;;;;72.18;54.22;;;4.20;99.90;;;;;;5008836;28;20202;-28
2020/12/26 00:18:18;;;;;;;16.75;14.95;;;4.20;99.90;;;;;;5010881;28;20199;-28
2020/12/26 00:20:49;;;;;;;32.63;26.75;;;4.20;99.90;;;;;;5010491;28;20242;-29
2020/12/26 00:23:19;;;;;;;7.18;6.57;;;4.30;99.90;;;;;;5011009;28;20282;-29
2020/12/26 00:25:49;;;;;;;27.17;21.25;;;4.40;99.90;;;;;;5010338;28;20331;-30
2020/12/26 00:28:19;;;;;;;10.40;9.35;;;4.40;99.90;;;;;;5010462;28;20203;-29
2020/12/26 00:30:49;;;;;;;46.90;35.95;;;4.40;99.90;;;;;;5011392;28;20207;-29
2020/12/26 00:33:19;;;;;;;73.78;55.13;;;4.40;99.90;;;;;;5010877;28;20203;-29
2020/12/26 00:35:51;;;;;;;38.20;30.80;;;4.40;99.90;;;;;;5008905;28;20207;-29
2020/12/26 00:38:21;;;;;;;18.48;16.25;;;4.40;99.90;;;;;;5010795;28;20191;-28
2020/12/26 00:40:51;;;;;;;13.10;11.57;;;4.40;99.90;;;;;;5010502;28;20251;-29
2020/12/26 00:43:21;;;;;;;12.07;10.77;;;4.40;99.90;;;;;;5011106;28;20248;-28
2020/12/26 00:45:51;;;;;;;26.85;22.23;;;4.50;99.90;;;;;;4993533;28;20208;-27
2020/12/26 00:48:21;;;;;;;22.13;18.73;;;4.50;99.90;;;;;;4991118;28;20235;-30
2020/12/26 00:50:53;;;;;;;41.92;26.65;;;4.50;99.90;;;;;;4991182;28;20240;-28
2020/12/26 00:53:23;;;;;;;7.82;7.03;;;4.50;99.90;;;;;;5008936;28;20249;-29
2020/12/26 00:55:53;;;;;;;14.15;12.75;;;4.50;99.90;;;;;;5010612;28;20222;-28
2020/12/26 00:58:23;;;;;;;7.50;6.88;;;4.60;99.90;;;;;;5010588;28;20603;-27
2020/12/26 01:00:53;;;;;;;14.68;13.18;;;4.60;99.90;;;;;;5010506;28;20647;-27
2020/12/26 01:03:23;;;;;;;11.65;10.50;;;4.60;99.90;;;;;;5008392;28;20306;-28
2020/12/26 01:05:54;;;;;;;7.90;7.22;;;4.70;99.90;;;;;;5011752;28;20207;-28
2020/12/26 01:08:24;;;;;;;11.52;10.43;;;4.70;99.90;;;;;;5030427;28;20538;-27
2020/12/26 01:10:55;;;;;;;6.82;6.13;;;4.70;99.90;;;;;;5011286;28;20251;-28
2020/12/26 01:13:25;;;;;;;17.27;15.13;;;4.80;99.90;;;;;;5008768;28;20570;-29
2020/12/26 01:15:55;;;;;;;19.50;15.93;;;4.70;99.90;;;;;;5010589;28;20225;-28
2020/12/26 01:18:28;;;;;;;26.65;22.10;;;4.60;99.90;;;;;;5009385;28;20199;-28
2020/12/26 01:21:03;;;;;;;12.65;11.30;;;4.60;99.90;;;;;;5009885;28;20293;-28
2020/12/26 01:23:33;;;;;;;11.65;9.95;;;4.60;99.90;;;;;;5010196;28;20195;-28
2020/12/26 01:26:03;;;;;;;10.98;9.85;;;4.60;99.90;;;;;;5009097;28;20265;-29
2020/12/26 01:28:34;;;;;;;9.07;8.20;;;4.60;99.90;;;;;;5016177;28;20191;-29
2020/12/26 01:31:04;;;;;;;9.23;8.32;;;4.60;99.90;;;;;;5010980;28;20222;-28
2020/12/26 01:33:34;;;;;;;7.43;6.72;;;4.50;99.90;;;;;;5018620;28;20211;-29
2020/12/26 01:36:05;;;;;;;12.82;11.52;;;4.50;99.90;;;;;;5025284;28;20743;-29
2020/12/26 01:38:37;;;;;;;16.48;12.43;;;4.50;99.90;;;;;;5006506;28;20222;-28
2020/12/26 01:41:08;;;;;;;10.48;7.88;;;4.40;99.90;;;;;;5024096;28;20280;-29
2020/12/26 01:43:39;;;;;;;6.70;6.18;;;4.30;99.90;;;;;;4990383;28;20553;-30
2020/12/26 01:46:10;;;;;;;7.82;6.65;;;4.30;99.90;;;;;;5011229;28;20194;-28
2020/12/26 01:48:40;;;;;;;7.85;7.20;;;4.20;99.90;;;;;;5017075;28;20226;-29
2020/12/26 01:51:12;;;;;;;6.85;6.25;;;4.30;99.90;;;;;;5013207;28;20242;-29
2020/12/26 01:53:42;;;;;;;12.30;11.18;;;4.30;99.90;;;;;;5009508;28;20203;-28
2020/12/26 01:56:12;;;;;;;9.63;8.90;;;4.30;99.90;;;;;;5009097;28;20195;-28
2020/12/26 01:58:43;;;;;;;12.23;11.23;;;4.40;99.90;;;;;;5009679;28;20207;-29
2020/12/26 02:01:14;;;;;;;6.97;6.47;;;4.40;99.90;;;;;;5007053;28;20223;-29
2020/12/26 02:03:44;;;;;;;8.20;7.50;;;4.50;99.90;;;;;;5009546;28;20207;-28
2020/12/26 02:06:16;;;;;;;18.33;16.70;;;4.50;99.90;;;;;;5009135;28;20195;-29
2020/12/26 02:08:46;;;;;;;10.98;10.07;;;4.50;99.90;;;;;;5009338;28;20196;-29
2020/12/26 02:11:16;;;;;;;11.68;10.73;;;4.60;99.90;;;;;;5005326;28;20309;-29
2020/12/26 02:13:46;;;;;;;12.13;11.05;;;4.70;99.90;;;;;;5009202;28;20199;-28
2020/12/26 02:16:17;;;;;;;6.80;6.20;;;4.60;99.90;;;;;;5009332;28;20199;-28
2020/12/26 02:18:47;;;;;;;6.57;6.00;;;4.60;99.90;;;;;;5009011;28;20204;-29
2020/12/26 02:21:26;;;;;;;7.65;6.95;;;4.70;99.90;;;;;;4993660;28;20306;-29
2020/12/26 02:24:02;;;;;;;7.10;6.40;;;4.80;99.90;;;;;;5009207;28;20206;-29
2020/12/26 02:26:32;;;;;;;9.13;8.20;;;4.80;99.90;;;;;;5008087;28;20604;-30
2020/12/26 02:29:02;;;;;;;14.70;13.23;;;4.80;99.90;;;;;;5011189;28;20261;-30
2020/12/26 02:31:32;;;;;;;13.75;12.35;;;4.80;99.90;;;;;;5013068;28;20203;-29
2020/12/26 02:34:02;;;;;;;73.03;58.65;;;4.80;99.90;;;;;;5012803;28;20269;-29
2020/12/26 02:36:35;;;;;;;14.45;13.10;;;4.80;99.90;;;;;;5012894;28;20199;-29
2020/12/26 02:39:08;;;;;;;38.38;31.15;;;4.70;99.90;;;;;;5013061;28;20207;-29
2020/12/26 02:41:39;;;;;;;51.47;37.47;;;4.70;99.90;;;;;;5012251;28;20563;-29
2020/12/26 02:44:09;;;;;;;8.48;7.78;;;4.70;99.90;;;;;;5012533;28;20646;-29
2020/12/26 02:46:39;;;;;;;20.83;18.83;;;4.60;99.90;;;;;;5012539;28;20207;-29
2020/12/26 02:49:09;;;;;;;8.40;7.65;;;4.60;99.90;;;;;;5012959;28;20261;-29
2020/12/26 02:51:39;;;;;;;10.70;9.05;;;4.60;99.90;;;;;;5012919;28;20206;-29
2020/12/26 02:54:11;;;;;;;7.20;6.60;;;4.70;99.90;;;;;;5012953;28;20629;-29
2020/12/26 02:56:42;;;;;;;8.50;7.68;;;4.60;99.90;;;;;;5007755;28;20208;-29
2020/12/26 02:59:12;;;;;;;8.40;7.57;;;4.60;99.90;;;;;;5012605;28;20340;-29
2020/12/26 03:01:42;;;;;;;10.35;9.32;;;4.60;99.90;;;;;;5012723;28;20223;-28
2020/12/26 03:04:12;;;;;;;9.88;8.93;;;4.60;99.90;;;;;;5012855;28;20203;-29
2020/12/26 03:06:42;;;;;;;9.02;8.13;;;4.60;99.90;;;;;;5012390;28;20581;-28
2020/12/26 03:09:14;;;;;;;8.75;7.95;;;4.60;99.90;;;;;;5012567;28;20554;-28
2020/12/26 03:11:44;;;;;;;11.10;10.00;;;4.60;99.90;;;;;;5011744;28;20252;-29
2020/12/26 03:14:14;;;;;;;11.07;9.63;;;4.60;99.90;;;;;;5008353;28;20188;-28
2020/12/26 03:16:44;;;;;;;11.20;10.10;;;4.60;99.90;;;;;;4992963;28;20199;-29
2020/12/26 03:19:14;;;;;;;11.13;10.07;;;4.70;99.90;;;;;;4998289;28;20199;-29
2020/12/26 03:21:44;;;;;;;16.20;14.50;;;4.60;99.90;;;;;;5012048;28;20289;-30
2020/12/26 03:24:16;;;;;;;14.77;13.27;;;4.60;99.90;;;;;;5012109;28;20204;-29
2020/12/26 03:26:46;;;;;;;14.35;13.00;;;4.50;99.90;;;;;;5011071;28;20199;-28
2020/12/26 03:29:16;;;;;;;19.73;17.30;;;4.60;99.90;;;;;;5006324;28;20199;-29
2020/12/26 03:31:46;;;;;;;13.52;12.13;;;4.60;99.90;;;;;;5005161;28;20211;-28
2020/12/26 03:34:16;;;;;;;860.13;149.68;;;4.60;99.90;;;;;;4992275;28;20200;-28
2020/12/26 03:36:46;;;;;;;17.85;16.08;;;4.60;99.90;;;;;;4992610;28;20250;-28
2020/12/26 03:39:17;;;;;;;19.40;17.30;;;4.70;99.90;;;;;;4992436;28;20207;-28
2020/12/26 03:41:47;;;;;;;30.80;25.85;;;4.70;99.90;;;;;;5000436;28;20219;-29
2020/12/26 03:44:17;;;;;;;22.70;20.30;;;4.60;99.90;;;;;;5011452;28;20265;-28
2020/12/26 03:46:47;;;;;;;16.27;14.68;;;4.50;99.90;;;;;;5007387;28;20269;-28
2020/12/26 03:49:17;;;;;;;18.80;16.33;;;4.50;99.90;;;;;;4992575;28;20256;-29
2020/12/26 03:51:47;;;;;;;22.48;17.88;;;4.50;99.90;;;;;;4991958;28;20303;-29
2020/12/26 03:54:19;;;;;;;44.78;29.92;;;4.50;99.90;;;;;;5010253;28;20215;-29
2020/12/26 03:56:50;;;;;;;36.40;25.08;;;4.50;99.90;;;;;;5011358;28;20627;-29
2020/12/26 03:59:20;;;;;;;17.65;15.45;;;4.50;99.90;;;;;;4994404;28;20741;-30
2020/12/26 04:01:50;;;;;;;18.30;16.20;;;4.50;99.90;;;;;;4992141;28;20242;-28
2020/12/26 04:04:20;;;;;;;16.60;14.80;;;4.50;99.90;;;;;;4997631;28;20269;-29
2020/12/26 04:06:50;;;;;;;15.68;14.20;;;4.50;99.90;;;;;;5001165;28;20204;-29
2020/12/26 04:09:21;;;;;;;17.02;15.23;;;4.50;99.90;;;;;;4997074;28;20200;-29
2020/12/26 04:11:51;;;;;;;14.50;12.93;;;4.50;99.90;;;;;;4999664;28;20235;-29
2020/12/26 04:14:22;;;;;;;17.27;15.55;;;4.50;99.90;;;;;;5006399;28;20188;-29
2020/12/26 04:16:57;;;;;;;16.50;14.85;;;4.50;99.90;;;;;;5008682;28;20279;-29
2020/12/26 04:19:28;;;;;;;22.30;20.05;;;4.40;99.90;;;;;;5011424;28;20195;-29
2020/12/26 04:21:59;;;;;;;56.63;51.20;;;4.40;99.90;;;;;;5002013;28;20215;-30
2020/12/26 04:24:30;;;;;;;35.17;31.98;;;4.40;99.90;;;;;;5010568;28;20759;-29
2020/12/26 04:27:00;;;;;;;14.88;13.05;;;4.40;99.90;;;;;;4998066;28;20203;-29
2020/12/26 04:29:35;;;;;;;21.40;19.38;;;4.50;99.90;;;;;;4995997;28;20708;-29
2020/12/26 04:32:05;;;;;;;36.65;33.03;;;4.50;99.90;;;;;;5011355;28;20204;-29
2020/12/26 04:34:35;;;;;;;20.80;18.63;;;4.50;99.90;;;;;;5010941;28;20207;-29
2020/12/26 04:37:05;;;;;;;29.60;26.50;;;4.60;99.90;;;;;;5005847;28;20204;-29
2020/12/26 04:39:43;;;;;;;44.15;23.60;;;4.50;99.90;;;;;;5010752;28;20714;-29
2020/12/26 04:42:13;;;;;;;15.27;13.80;;;4.50;99.90;;;;;;4997303;28;20212;-29
2020/12/26 04:44:43;;;;;;;23.23;20.77;;;4.40;99.90;;;;;;4990867;28;20197;-29
2020/12/26 04:47:15;;;;;;;24.55;21.38;;;4.40;99.90;;;;;;4996518;28;20211;-29
2020/12/26 04:49:48;;;;;;;31.13;28.13;;;4.50;99.90;;;;;;5007457;28;20184;-28
2020/12/26 04:52:22;;;;;;;23.40;21.13;;;4.60;99.90;;;;;;4999969;28;20262;-28
2020/12/26 04:54:55;;;;;;;35.85;32.42;;;4.60;99.90;;;;;;5000854;28;20195;-29
2020/12/26 04:57:26;;;;;;;17.65;16.13;;;4.70;99.90;;;;;;5010439;28;20195;-29
2020/12/26 04:59:56;;;;;;;57.65;51.85;;;4.70;99.90;;;;;;5010350;28;20194;-29
2020/12/26 05:02:36;;;;;;;80.63;71.85;;;4.90;99.90;;;;;;5010589;28;20227;-29
2020/12/26 05:05:06;;;;;;;45.70;41.05;;;4.90;99.90;;;;;;5010175;28;20232;-28
2020/12/26 05:07:37;;;;;;;32.78;29.45;;;4.90;99.90;;;;;;4998707;28;20250;-29
2020/12/26 05:10:08;;;;;;;23.98;21.42;;;5.00;99.90;;;;;;4991210;28;20259;-28
2020/12/26 05:12:38;;;;;;;72.05;62.03;;;4.90;99.90;;;;;;4991089;28;20318;-29
2020/12/26 05:15:08;;;;;;;18.63;16.83;;;5.00;99.90;;;;;;5005084;28;20196;-29
2020/12/26 05:17:39;;;;;;;54.78;45.00;;;5.00;99.90;;;;;;5002934;28;20338;-29
2020/12/26 05:20:10;;;;;;;54.42;48.58;;;5.00;99.90;;;;;;5003076;28;20218;-29
2020/12/26 05:22:40;;;;;;;20.98;18.95;;;5.00;99.90;;;;;;5005524;28;20223;-30
2020/12/26 05:25:12;;;;;;;30.55;27.52;;;5.10;99.90;;;;;;5004798;28;20212;-28
2020/12/26 05:27:42;;;;;;;44.13;39.55;;;5.00;99.90;;;;;;5004181;28;20204;-28
2020/12/26 05:30:12;;;;;;;41.13;36.22;;;5.00;99.90;;;;;;5008040;28;20663;-28
2020/12/26 05:32:49;;;;;;;46.35;41.45;;;5.00;99.90;;;;;;5008092;28;20203;-29
2020/12/26 05:35:19;;;;;;;55.75;49.72;;;5.00;99.90;;;;;;5008714;28;20675;-29
2020/12/26 05:37:49;;;;;;;25.85;23.15;;;5.10;99.90;;;;;;5004494;28;20213;-30
2020/12/26 05:40:23;;;;;;;26.20;23.10;;;5.10;99.90;;;;;;5007135;28;20203;-29
2020/12/26 05:42:55;;;;;;;18.42;16.63;;;5.00;99.90;;;;;;5005856;28;20254;-29
2020/12/26 05:45:25;;;;;;;23.13;20.75;;;5.00;99.90;;;;;;5000254;28;20218;-28
2020/12/26 05:48:08;;;;;;;13.45;12.15;;;4.90;99.90;;;;;;5004317;28;20310;-28
2020/12/26 05:50:39;;;;;;;12.40;11.30;;;4.90;99.90;;;;;;5007631;28;20213;-29
2020/12/26 05:53:12;;;;;;;12.93;11.63;;;4.90;99.90;;;;;;5009826;28;20199;-28
2020/12/26 05:55:45;;;;;;;15.00;12.27;;;4.90;99.90;;;;;;5009779;28;20191;-28
2020/12/26 05:58:19;;;;;;;14.85;12.38;;;5.00;99.90;;;;;;5006682;28;20245;-28
2020/12/26 06:00:50;;;;;;;15.55;13.95;;;5.10;99.90;;;;;;5010092;28;20337;-28
2020/12/26 06:03:24;;;;;;;15.63;13.15;;;5.10;99.90;;;;;;5012979;28;20670;-28
2020/12/26 06:05:55;;;;;;;26.77;23.92;;;5.10;99.90;;;;;;5028215;28;20249;-29
2020/12/26 06:08:26;;;;;;;30.05;27.10;;;5.10;99.90;;;;;;5030992;28;20187;-29
2020/12/26 06:10:59;;;;;;;20.40;18.02;;;5.10;99.90;;;;;;5015642;28;20702;-29
2020/12/26 06:13:31;;;;;;;15.63;14.02;;;5.10;99.90;;;;;;5015263;28;20374;-28
2020/12/26 06:16:09;;;;;;;12.68;11.40;;;5.10;99.90;;;;;;5016712;28;20234;-29
2020/12/26 06:18:42;;;;;;;16.88;13.73;;;5.20;99.90;;;;;;5016259;28;20195;-29
2020/12/26 06:21:13;;;;;;;20.08;17.73;;;5.20;99.90;;;;;;5011380;28;20690;-28
2020/12/26 06:23:44;;;;;;;16.25;14.35;;;5.20;99.90;;;;;;5015328;28;20257;-28
2020/12/26 06:26:18;;;;;;;17.52;15.20;;;5.20;99.90;;;;;;5014433;28;20183;-29
2020/12/26 06:28:49;;;;;;;16.45;14.75;;;5.30;99.90;;;;;;5010684;28;20194;-28
2020/12/26 06:31:22;;;;;;;15.75;14.05;;;5.30;99.90;;;;;;5015003;28;20202;-29
2020/12/26 06:33:52;;;;;;;19.10;15.93;;;5.30;99.90;;;;;;5010591;28;20214;-28
2020/12/26 06:36:23;;;;;;;19.75;17.02;;;5.40;99.90;;;;;;5011354;28;20679;-27
2020/12/26 06:38:53;;;;;;;14.50;13.00;;;5.30;99.90;;;;;;5006207;28;20203;-28
2020/12/26 06:41:24;;;;;;;14.48;13.07;;;5.30;99.90;;;;;;5013070;28;20218;-27
2020/12/26 06:43:55;;;;;;;18.05;16.13;;;5.30;99.90;;;;;;5015017;28;20345;-27
2020/12/26 06:46:41;;;;;;;13.05;11.77;;;5.40;99.90;;;;;;5013541;28;20195;-28
2020/12/26 06:49:29;;;;;;;14.43;12.98;;;5.50;99.90;;;;;;5012392;28;20207;-28
2020/12/26 06:51:59;;;;;;;14.65;12.60;;;5.60;99.90;;;;;;5010328;28;20207;-27
2020/12/26 06:54:47;;;;;;;14.95;13.13;;;5.70;99.90;;;;;;5009371;28;20203;-28
2020/12/26 06:57:40;;;;;;;15.63;11.95;;;5.80;99.90;;;;;;5009701;28;20292;-28
2020/12/26 07:00:30;;;;;;;13.60;12.20;;;5.90;99.90;;;;;;5009383;28;20348;-28
2020/12/26 07:03:28;;;;;;;13.05;11.75;;;5.90;99.90;;;;;;5009300;28;20250;-29
2020/12/26 07:05:59;;;;;;;15.93;14.23;;;6.00;99.90;;;;;;5010184;28;20203;-28
2020/12/26 07:08:34;;;;;;;14.20;12.80;;;6.10;99.90;;;;;;5015090;28;20662;-28
2020/12/26 07:11:22;;;;;;;16.10;14.50;;;6.10;99.90;;;;;;5013991;28;20621;-29
2020/12/26 07:13:54;;;;;;;19.15;16.58;;;6.20;99.90;;;;;;5013445;28;20245;-27
2020/12/26 07:16:55;;;;;;;19.17;17.27;;;6.30;99.90;;;;;;5010301;28;20273;-28
2020/12/26 07:19:26;;;;;;;19.00;16.98;;;6.20;99.90;;;;;;5010775;28;20199;-28
2020/12/26 07:21:57;;;;;;;18.55;16.65;;;6.20;99.90;;;;;;5012790;28;20215;-28
2020/12/26 07:24:37;;;;;;;18.67;16.77;;;6.30;99.90;;;;;;5004959;28;20192;-29
2020/12/26 07:27:21;;;;;;;18.50;16.60;;;6.30;99.90;;;;;;5008591;28;20213;-29
2020/12/26 07:29:55;;;;;;;17.33;14.82;;;6.40;99.90;;;;;;5007807;28;20203;-29
2020/12/26 07:32:58;;;;;;;17.52;15.77;;;6.40;99.90;;;;;;5012756;28;20191;-28
2020/12/26 07:35:41;;;;;;;15.35;13.70;;;6.40;99.90;;;;;;4999987;28;20184;-29
2020/12/26 07:38:16;;;;;;;15.90;14.27;;;6.50;99.90;;;;;;4996639;28;20250;-29
2020/12/26 07:40:48;;;;;;;15.65;14.15;;;6.50;99.90;;;;;;4998974;28;20199;-29
2020/12/26 07:43:19;;;;;;;20.58;18.45;;;6.60;99.90;;;;;;5011339;28;20254;-28
2020/12/26 07:45:55;;;;;;;19.95;17.17;;;6.60;99.90;;;;;;5010940;28;20247;-29
2020/12/26 07:48:25;;;;;;;21.80;19.70;;;6.60;99.90;;;;;;5012152;28;20641;-29
2020/12/26 07:50:55;;;;;;;18.35;16.52;;;6.70;99.90;;;;;;5011762;28;20211;-29
2020/12/26 07:53:25;;;;;;;18.00;16.40;;;6.70;99.90;;;;;;5002567;28;20203;-30
2020/12/26 07:55:56;;;;;;;14.90;13.55;;;6.70;99.90;;;;;;4995058;28;20602;-30
2020/12/26 07:58:26;;;;;;;12.15;11.05;;;6.90;99.90;;;;;;5004976;28;20200;-30
2020/12/26 08:00:57;;;;;;;9.40;8.52;;;7.20;99.90;;;;;;4995317;28;20204;-29
2020/12/26 08:03:27;;;;;;;11.30;9.50;;;7.60;99.90;;;;;;4992543;28;20650;-29
2020/12/26 08:05:57;;;;;;;11.88;8.68;;;7.80;99.90;;;;;;5005734;28;20621;-29
2020/12/26 08:08:27;;;;;;;7.75;7.05;;;8.00;99.90;;;;;;5011331;28;20269;-29
2020/12/26 08:11:01;;;;;;;6.30;5.70;;;8.00;99.90;;;;;;5006810;28;20286;-29
2020/12/26 08:13:32;;;;;;;6.22;5.03;;;8.20;99.90;;;;;;4991819;28;20598;-33
2020/12/26 08:16:06;;;;;;;5.30;4.18;;;8.30;99.90;;;;;;5006705;28;20206;-29
2020/12/26 08:18:37;;;;;;;5.85;3.70;;;8.40;99.90;;;;;;4992038;28;20199;-29
2020/12/26 08:21:08;;;;;;;4.15;3.60;;;8.50;99.90;;;;;;5010019;28;20195;-29
2020/12/26 08:23:37;;;;;;;3.42;2.60;;;8.50;99.90;;;;;;5008605;28;20203;-29
2020/12/26 08:26:08;;;;;;;3.90;2.50;;;8.60;99.90;;;;;;5003428;28;20207;-30
2020/12/26 08:28:39;;;;;;;2.75;2.55;;;8.70;99.90;;;;;;5009419;28;20713;-29
2020/12/26 08:31:14;;;;;;;4.38;2.50;;;8.80;99.90;;;;;;5011613;28;20220;-28
2020/12/26 08:33:49;;;;;;;2.50;2.05;;;8.80;99.90;;;;;;5010661;28;20250;-28
2020/12/26 08:36:28;;;;;;;2.53;2.10;;;8.90;99.90;;;;;;5006209;28;20294;-28
2020/12/26 08:38:59;;;;;;;4.90;2.38;;;8.90;99.90;;;;;;4995486;28;20834;-28
2020/12/26 08:41:31;;;;;;;3.60;1.73;;;8.90;99.90;;;;;;4998608;28;20271;-29
2020/12/26 08:44:01;;;;;;;2.97;1.88;;;9.00;99.90;;;;;;5002058;28;20228;-28
2020/12/26 08:46:42;;;;;;;2.40;1.90;;;9.00;99.90;;;;;;5011242;28;20214;-28
2020/12/26 08:49:12;;;;;;;3.63;2.55;;;9.00;99.90;;;;;;5009784;28;21734;-28
2020/12/26 08:51:43;;;;;;;3.95;2.67;;;9.10;99.90;;;;;;5008459;28;20532;-28
2020/12/26 08:54:20;;;;;;;4.20;2.00;;;9.10;99.90;;;;;;5010363;28;20219;-27
2020/12/26 08:56:51;;;;;;;2.38;1.60;;;9.10;99.90;;;;;;5010490;28;20336;-28
2020/12/26 08:59:28;;;;;;;2.95;2.10;;;9.10;99.90;;;;;;5002218;28;20188;-29
2020/12/26 09:02:00;;;;;;;6.68;2.17;;;9.10;99.90;;;;;;5007571;28;20226;-29
2020/12/26 09:04:30;;;;;;;3.55;2.70;;;9.20;99.90;;;;;;4998142;28;20219;-29
2020/12/26 09:07:00;;;;;;;3.83;2.72;;;9.10;99.90;;;;;;5004050;28;20200;-28
2020/12/26 09:09:33;;;;;;;3.08;2.03;;;9.10;99.90;;;;;;5009889;28;20208;-29
2020/12/26 09:12:04;;;;;;;2.85;2.17;;;9.10;99.90;;;;;;5010485;28;20376;-30
2020/12/26 09:14:34;;;;;;;2.35;1.70;;;9.10;99.90;;;;;;5010558;28;20196;-29
2020/12/26 09:17:06;;;;;;;4.55;1.33;;;9.20;99.90;;;;;;5010483;28;20211;-29
2020/12/26 09:19:45;;;;;;;2.60;1.85;;;9.20;99.90;;;;;;4994510;28;20512;-29
2020/12/26 09:22:15;;;;;;;5.57;1.95;;;9.20;99.90;;;;;;5000054;28;20616;-29
2020/12/26 09:24:45;;;;;;;2.97;1.40;;;9.20;99.90;;;;;;5010206;28;20638;-29
2020/12/26 09:27:22;;;;;;;1.60;1.35;;;9.10;99.90;;;;;;5009684;28;20827;-29
2020/12/26 09:30:05;;;;;;;1.77;1.50;;;9.00;99.90;;;;;;5010063;28;20195;-29
2020/12/26 09:32:36;;;;;;;2.90;1.45;;;9.10;99.90;;;;;;5010640;28;20199;-29
2020/12/26 09:35:18;;;;;;;1.70;1.30;;;9.10;99.90;;;;;;5010624;28;20188;-29
2020/12/26 09:37:59;;;;;;;1.38;1.05;;;9.10;99.90;;;;;;5010018;28;20249;-29
2020/12/26 09:40:33;;;;;;;2.80;1.27;;;9.10;99.90;;;;;;5010437;28;20191;-30
2020/12/26 09:43:06;;;;;;;3.63;1.10;;;9.00;99.90;;;;;;5009643;28;20218;-29
2020/12/26 09:45:36;;;;;;;4.32;1.30;;;9.00;99.90;;;;;;4990532;28;20615;-29
2020/12/26 09:48:07;;;;;;;3.10;1.25;;;9.00;99.90;;;;;;4991016;28;20226;-29
2020/12/26 09:50:37;;;;;;;3.08;1.38;;;9.00;99.90;;;;;;4990535;28;20203;-30
2020/12/26 09:53:07;;;;;;;2.25;1.17;;;9.00;99.90;;;;;;4997975;28;20214;-29
2020/12/26 09:55:37;;;;;;;3.85;1.27;;;8.90;99.90;;;;;;5010238;28;20540;-29
2020/12/26 09:58:07;;;;;;;2.53;1.33;;;9.00;99.90;;;;;;5008930;28;20203;-29
2020/12/26 10:00:37;;;;;;;1.30;1.20;;;8.90;99.90;;;;;;5008626;28;20640;-29
2020/12/26 10:03:09;;;;;;;2.05;1.25;;;9.00;99.90;;;;;;5009969;28;20238;-29
2020/12/26 10:05:39;;;;;;;2.53;1.45;;;9.00;99.90;;;;;;5009741;28;20258;-29
2020/12/26 10:08:09;;;;;;;3.40;1.48;;;8.90;99.90;;;;;;5009891;28;20222;-29
2020/12/26 10:10:39;;;;;;;2.92;1.33;;;8.80;99.90;;;;;;5007950;28;20203;-30
2020/12/26 10:13:09;;;;;;;7.03;1.67;;;8.80;99.90;;;;;;5009182;28;20215;-29
2020/12/26 10:15:39;;;;;;;4.72;1.35;;;8.80;99.90;;;;;;5003923;28;20199;-29
2020/12/26 10:18:10;;;;;;;3.13;1.20;;;8.70;99.90;;;;;;5009750;28;20667;-28
2020/12/26 10:20:42;;;;;;;2.78;0.90;;;8.70;99.90;;;;;;5009979;28;20203;-29
2020/12/26 10:23:12;;;;;;;2.55;1.45;;;8.60;99.90;;;;;;5009330;28;20230;-29
2020/12/26 10:25:50;;;;;;;1.63;1.30;;;8.60;99.90;;;;;;5005071;28;20647;-28
2020/12/26 10:28:20;;;;;;;2.15;1.60;;;8.50;99.90;;;;;;5009016;28;20211;-28
2020/12/26 10:30:51;;;;;;;3.75;2.35;;;8.40;99.90;;;;;;5010045;28;20218;-29
2020/12/26 10:33:22;;;;;;;8.68;4.00;;;8.40;99.90;;;;;;5010071;28;20226;-28
2020/12/26 10:35:52;;;;;;;7.13;5.40;;;8.30;99.90;;;;;;5009585;28;20199;-28
2020/12/26 10:38:23;;;;;;;5.45;4.90;;;8.20;99.90;;;;;;5009864;28;20254;-28
2020/12/26 10:40:53;;;;;;;8.73;5.88;;;8.10;99.90;;;;;;5009162;28;20199;-29
2020/12/26 10:43:23;;;;;;;5.85;5.35;;;7.90;99.90;;;;;;5008906;28;20239;-28
2020/12/26 10:45:53;;;;;;;5.75;5.25;;;7.90;99.90;;;;;;5009723;28;20215;-29
2020/12/26 10:48:24;;;;;;;6.30;5.65;;;7.80;99.90;;;;;;5008818;28;20584;-28
2020/12/26 10:50:54;;;;;;;5.25;4.75;;;7.80;99.90;;;;;;5012183;28;20560;-28
2020/12/26 10:53:24;;;;;;;6.85;3.72;;;7.70;99.90;;;;;;5011959;28;20203;-28
2020/12/26 10:56:09;;;;;;;6.80;4.18;;;7.70;99.90;;;;;;5011914;28;20298;-29
2020/12/26 10:58:39;;;;;;;5.25;3.40;;;7.70;99.90;;;;;;4992612;28;20270;-29
2020/12/26 11:01:09;;;;;;;4.30;3.10;;;7.70;99.90;;;;;;4994800;28;20204;-29
2020/12/26 11:03:40;;;;;;;2.67;2.47;;;7.70;99.90;;;;;;4993175;28;20243;-29
2020/12/26 11:06:11;;;;;;;3.22;2.10;;;7.70;99.90;;;;;;5003637;28;20191;-28
2020/12/26 11:08:44;;;;;;;2.90;1.90;;;7.80;99.90;;;;;;5013002;28;20204;-28
2020/12/26 11:11:14;;;;;;;3.05;1.70;;;7.80;99.90;;;;;;5013003;28;20710;-29
2020/12/26 11:13:44;;;;;;;3.75;1.70;;;7.90;99.90;;;;;;5012118;28;20258;-29
2020/12/26 11:16:15;;;;;;;3.20;1.77;;;8.00;99.90;;;;;;5011796;28;20318;-29
2020/12/26 11:18:47;;;;;;;3.90;1.83;;;8.00;99.90;;;;;;5012867;28;20258;-29
2020/12/26 11:21:17;;;;;;;3.50;1.73;;;8.00;99.90;;;;;;5012816;28;20188;-29
2020/12/26 11:23:47;;;;;;;10.02;1.85;;;8.10;99.90;;;;;;5012935;28;20238;-29
2020/12/26 11:26:28;;;;;;;7.55;2.10;;;8.10;99.90;;;;;;5012559;28;20195;-29
2020/12/26 11:28:59;;;;;;;5.30;3.05;;;8.20;99.90;;;;;;5012306;28;20222;-28
2020/12/26 11:31:29;;;;;;;2.85;2.50;;;8.20;99.90;;;;;;5012180;28;20281;-29
2020/12/26 11:34:00;;;;;;;4.35;2.28;;;8.20;99.90;;;;;;5012572;28;20257;-29
2020/12/26 11:36:31;;;;;;;2.95;1.90;;;8.20;99.90;;;;;;5012668;28;20214;-29
2020/12/26 11:39:01;;;;;;;3.08;2.03;;;8.20;99.90;;;;;;5012333;28;20203;-29
2020/12/26 11:41:31;;;;;;;5.35;1.80;;;8.20;99.90;;;;;;5012330;28;20207;-29
2020/12/26 11:44:01;;;;;;;3.70;1.48;;;8.20;99.90;;;;;;4996263;28;20257;-28
2020/12/26 11:46:31;;;;;;;2.53;1.73;;;8.20;99.90;;;;;;4993316;28;20239;-28
2020/12/26 11:49:03;;;;;;;5.32;1.35;;;8.20;99.90;;;;;;5007488;28;20257;-28
2020/12/26 11:51:33;;;;;;;2.20;1.65;;;8.20;99.90;;;;;;5012562;28;20196;-28
2020/12/26 11:54:03;;;;;;;3.22;1.80;;;8.20;99.90;;;;;;4997228;28;20195;-28
2020/12/26 11:56:51;;;;;;;5.65;2.22;;;8.30;99.90;;;;;;5010596;28;20184;-28
2020/12/26 11:59:21;;;;;;;2.90;1.42;;;8.30;99.90;;;;;;5011367;28;20199;-28
2020/12/26 12:01:55;;;;;;;2.92;1.75;;;8.30;99.90;;;;;;5011261;28;20685;-28
2020/12/26 12:04:26;;;;;;;2.60;1.20;;;8.30;99.90;;;;;;5012562;28;20583;-27
2020/12/26 12:06:56;;;;;;;1.80;1.20;;;8.30;99.90;;;;;;5012007;28;20270;-27
2020/12/26 12:09:27;;;;;;;2.65;1.45;;;8.30;99.90;;;;;;5011885;28;20195;-28
2020/12/26 12:11:57;;;;;;;1.80;1.20;;;8.30;99.90;;;;;;5009521;28;20227;-27
2020/12/26 12:14:27;;;;;;;3.05;1.38;;;8.30;99.90;;;;;;5011607;28;20216;-28
2020/12/26 12:16:57;;;;;;;3.83;3.53;;;8.30;99.90;;;;;;5010809;28;20621;-28
2020/12/26 12:19:28;;;;;;;5.57;3.83;;;8.30;99.90;;;;;;5012070;28;20538;-28
2020/12/26 12:21:58;;;;;;;3.83;3.30;;;8.00;99.90;;;;;;5011350;28;20195;-28
2020/12/26 12:24:29;;;;;;;4.13;3.72;;;7.80;99.90;;;;;;5010988;28;20196;-28
2020/12/26 12:27:08;;;;;;;3.67;3.38;;;7.60;99.90;;;;;;4991648;28;20286;-28
2020/12/26 12:29:38;;;;;;;4.25;3.85;;;7.50;99.90;;;;;;4992586;28;20208;-28
2020/12/26 12:32:08;;;;;;;6.05;4.80;;;7.40;99.90;;;;;;5009758;28;20207;-28
2020/12/26 12:34:39;;;;;;;6.03;3.92;;;7.30;99.90;;;;;;5011416;28;20214;-28
2020/12/26 12:37:12;;;;;;;4.05;3.72;;;7.20;99.90;;;;;;5011611;28;20192;-28
2020/12/26 12:39:42;;;;;;;4.05;3.65;;;7.30;99.90;;;;;;5011129;28;20290;-28
2020/12/26 12:42:12;;;;;;;4.32;3.83;;;7.30;99.90;;;;;;5002903;28;20224;-28
2020/12/26 12:44:42;;;;;;;4.85;4.00;;;7.30;99.90;;;;;;4991141;28;20262;-28
2020/12/26 12:47:12;;;;;;;4.50;3.85;;;7.30;99.90;;;;;;4998056;28;20247;-28
2020/12/26 12:49:43;;;;;;;3.90;3.60;;;7.30;99.90;;;;;;5010772;28;20223;-28
2020/12/26 12:52:13;;;;;;;6.60;3.88;;;7.30;99.90;;;;;;5010878;28;20199;-28
2020/12/26 12:54:43;;;;;;;4.78;4.30;;;7.30;99.90;;;;;;5010917;28;20258;-28
2020/12/26 12:57:27;;;;;;;3.72;3.40;;;7.30;99.90;;;;;;5010891;28;20249;-28
2020/12/26 12:59:57;;;;;;;3.75;3.45;;;7.20;99.90;;;;;;5010213;28;20203;-27
2020/12/26 13:02:27;;;;;;;4.22;3.88;;;7.30;99.90;;;;;;5010982;28;20234;-27
2020/12/26 13:04:59;;;;;;;4.03;3.60;;;7.30;99.90;;;;;;5010542;28;20211;-27
2020/12/26 13:07:34;;;;;;;2.42;2.22;;;7.40;99.90;;;;;;5011066;28;20269;-28
2020/12/26 13:10:04;;;;;;;3.83;1.77;;;7.60;99.90;;;;;;5010630;28;20207;-27